Time;durP1;ratioP1;P1;durP2;ratioP2;P2;SDS_P1;SDS_P2;PMS_P1;PMS_P2;Temp;Humidity;BMP_temperature;BMP_pressure;BME280_temperature;BME280_humidity;BME280_pressure;Samples;Min_cycle;Max_cycle;Signal;HPM_P1;HPM_P2
2021/12/19 00:00:22;;;;;;;4.03;3.08;;;4.90;67.90;;;;;;5076550;28;20031;-55
2021/12/19 00:10:55;;;;;;;3.67;2.55;;;4.90;68.10;;;;;;5085922;28;20110;-55
2021/12/19 00:13:25;;;;;;;3.63;2.88;;;4.80;68.10;;;;;;5094021;28;20103;-56
2021/12/19 00:15:52;;;;;;;3.92;2.97;;;4.90;68.40;;;;;;5090280;28;20032;-55
2021/12/19 00:18:18;;;;;;;4.07;2.60;;;4.80;68.50;;;;;;5077166;28;20032;-57
2021/12/19 00:20:44;;;;;;;3.05;2.67;;;4.80;68.50;;;;;;5089622;28;20024;-57
2021/12/19 00:23:10;;;;;;;5.55;2.90;;;4.80;68.50;;;;;;5090605;28;20504;-56
2021/12/19 00:25:36;;;;;;;3.72;2.90;;;4.80;68.50;;;;;;5073353;28;20025;-55
2021/12/19 00:28:01;;;;;;;2.70;2.38;;;4.80;68.60;;;;;;5073616;28;20036;-56
2021/12/19 00:30:27;;;;;;;3.67;2.75;;;4.80;68.70;;;;;;5077945;28;20032;-55
2021/12/19 00:32:52;;;;;;;3.75;2.90;;;4.80;68.80;;;;;;5085934;28;20024;-56
2021/12/19 00:35:19;;;;;;;3.83;2.70;;;4.80;68.80;;;;;;5077005;28;20127;-57
2021/12/19 00:37:45;;;;;;;4.32;3.00;;;4.80;68.90;;;;;;5079456;28;20110;-55
2021/12/19 00:40:11;;;;;;;3.58;2.83;;;4.80;68.90;;;;;;5093757;28;20422;-54
2021/12/19 00:42:37;;;;;;;3.53;2.78;;;4.80;69.00;;;;;;5093539;28;20032;-57
2021/12/19 00:45:16;;;;;;;3.30;2.80;;;4.80;69.10;;;;;;5092092;28;20028;-57
2021/12/19 00:47:43;;;;;;;3.03;2.60;;;4.80;69.20;;;;;;5081408;28;20449;-57
2021/12/19 00:50:09;;;;;;;3.13;2.70;;;4.80;69.20;;;;;;5077503;28;20016;-57
2021/12/19 00:52:35;;;;;;;4.40;3.30;;;4.80;69.20;;;;;;5077121;28;20035;-57
2021/12/19 00:55:01;;;;;;;3.35;2.80;;;4.70;69.30;;;;;;5078904;28;20020;-56
2021/12/19 00:57:26;;;;;;;3.33;3.00;;;4.80;69.40;;;;;;5084994;28;20882;-57
2021/12/19 00:59:52;;;;;;;3.38;2.95;;;4.70;69.40;;;;;;5079152;28;20063;-56
2021/12/19 01:02:18;;;;;;;3.55;3.25;;;4.80;69.60;;;;;;5094201;28;20047;-57
2021/12/19 01:04:44;;;;;;;2.85;2.55;;;4.80;69.50;;;;;;5081047;28;20064;-54
2021/12/19 01:07:10;;;;;;;3.70;3.13;;;4.80;69.60;;;;;;5076348;28;20031;-54
2021/12/19 01:09:35;;;;;;;3.20;2.90;;;4.80;69.70;;;;;;5078877;28;20465;-56
2021/12/19 01:12:02;;;;;;;3.30;3.00;;;4.80;69.80;;;;;;5095840;28;20099;-56
2021/12/19 01:14:27;;;;;;;3.97;2.85;;;4.80;70.20;;;;;;5094787;28;20558;-57
2021/12/19 01:16:54;;;;;;;3.95;2.85;;;4.70;69.90;;;;;;5076553;28;20040;-57
2021/12/19 01:19:20;;;;;;;3.35;2.72;;;4.70;70.00;;;;;;5081243;28;20036;-57
2021/12/19 01:21:46;;;;;;;3.50;2.65;;;4.70;70.10;;;;;;5094371;28;20502;-54
2021/12/19 01:24:11;;;;;;;2.80;2.60;;;4.70;70.20;;;;;;5096514;28;20028;-55
2021/12/19 01:26:37;;;;;;;2.92;2.63;;;4.70;70.30;;;;;;5084505;28;20114;-56
2021/12/19 01:29:03;;;;;;;3.30;2.65;;;4.70;70.40;;;;;;5084369;28;20081;-56
2021/12/19 01:31:29;;;;;;;3.00;2.75;;;4.70;70.40;;;;;;5093091;28;20063;-57
2021/12/19 01:33:55;;;;;;;3.05;2.60;;;4.70;70.50;;;;;;5080506;28;20082;-56
2021/12/19 01:36:20;;;;;;;3.55;3.00;;;4.70;70.60;;;;;;5081668;28;20109;-57
2021/12/19 01:38:46;;;;;;;3.47;2.90;;;4.70;70.70;;;;;;5082458;28;20548;-55
2021/12/19 01:41:12;;;;;;;3.88;3.30;;;4.70;70.70;;;;;;5092354;28;20115;-58
2021/12/19 01:43:37;;;;;;;3.60;2.92;;;4.70;70.70;;;;;;5076538;28;20063;-57
2021/12/19 01:46:03;;;;;;;4.55;3.67;;;4.70;70.80;;;;;;5089624;28;20466;-57
2021/12/19 01:48:29;;;;;;;4.55;3.40;;;4.70;70.90;;;;;;5085423;28;20107;-56
2021/12/19 01:50:55;;;;;;;4.18;3.10;;;4.70;70.90;;;;;;5087528;28;20111;-57
2021/12/19 01:53:20;;;;;;;3.30;3.00;;;4.70;71.00;;;;;;5075996;28;20031;-56
2021/12/19 01:55:48;;;;;;;3.70;2.90;;;4.70;71.00;;;;;;5076096;28;20079;-57
2021/12/19 01:58:15;;;;;;;5.13;3.08;;;4.60;71.10;;;;;;5079951;28;20093;-55
2021/12/19 02:00:46;;;;;;;3.38;3.08;;;4.60;71.10;;;;;;5090897;28;20537;-56
2021/12/19 02:03:12;;;;;;;3.20;2.90;;;4.60;71.30;;;;;;5091279;28;20060;-54
2021/12/19 02:05:39;;;;;;;3.92;2.97;;;4.60;71.30;;;;;;5084206;28;20028;-56
2021/12/19 02:08:05;;;;;;;4.07;2.70;;;4.60;71.50;;;;;;5093227;28;20024;-56
2021/12/19 02:10:33;;;;;;;3.35;2.97;;;4.60;71.70;;;;;;5090562;28;20020;-57
2021/12/19 02:13:02;;;;;;;4.03;3.10;;;4.60;71.80;;;;;;5075546;28;20025;-57
2021/12/19 02:15:29;;;;;;;3.50;3.20;;;4.60;72.10;;;;;;5075288;28;20388;-56
2021/12/19 02:17:58;;;;;;;4.18;3.33;;;4.60;72.20;;;;;;5090908;28;20475;-54
2021/12/19 02:20:26;;;;;;;3.70;2.70;;;4.60;72.30;;;;;;5075108;28;20024;-55
2021/12/19 02:22:52;;;;;;;3.75;3.45;;;4.60;72.40;;;;;;5079044;28;20048;-55
2021/12/19 02:25:18;;;;;;;3.83;3.00;;;4.60;72.50;;;;;;5083848;28;20029;-56
2021/12/19 02:27:44;;;;;;;3.72;3.22;;;4.50;72.60;;;;;;5084682;28;20352;-54
2021/12/19 02:30:11;;;;;;;3.67;3.33;;;4.50;72.70;;;;;;5087816;28;21061;-58
2021/12/19 02:32:39;;;;;;;3.80;3.40;;;4.50;72.90;;;;;;5074754;28;20075;-54
2021/12/19 02:35:09;;;;;;;4.95;3.50;;;4.50;73.10;;;;;;5075604;28;20097;-56
2021/12/19 02:48:10;;;;;;;3.75;3.33;;;4.50;73.60;;;;;;5075623;28;20044;-55
2021/12/19 02:48:26;;;;;;;4.72;3.65;;;4.40;73.60;;;;;;5074886;28;20025;-57
2021/12/19 02:50:54;;;;;;;4.00;3.45;;;4.50;73.80;;;;;;5086261;28;20111;-57
2021/12/19 02:53:39;;;;;;;4.72;4.13;;;4.50;73.80;;;;;;5081573;28;20027;-56
2021/12/19 02:56:07;;;;;;;6.30;3.95;;;4.50;73.90;;;;;;5089043;28;20016;-54
2021/12/19 02:58:36;;;;;;;5.10;3.83;;;4.50;73.90;;;;;;5094812;28;20054;-55
2021/12/19 03:01:09;;;;;;;4.18;3.70;;;4.50;74.10;;;;;;5080882;28;20028;-53
2021/12/19 03:03:35;;;;;;;5.15;4.00;;;4.50;74.10;;;;;;5077929;28;20138;-57
2021/12/19 03:06:00;;;;;;;5.93;4.35;;;4.50;74.20;;;;;;5087453;28;20032;-55
2021/12/19 03:08:26;;;;;;;5.38;4.35;;;4.50;74.30;;;;;;5091315;28;20384;-57
2021/12/19 03:18:58;;;;;;;6.70;4.80;;;4.60;74.50;;;;;;5081750;28;20154;-57
2021/12/19 03:21:25;;;;;;;6.35;5.10;;;4.70;74.50;;;;;;5086391;28;20486;-57
2021/12/19 03:23:52;;;;;;;6.20;4.63;;;4.80;74.40;;;;;;5073971;28;20051;-57
2021/12/19 03:26:17;;;;;;;5.18;4.47;;;4.80;74.30;;;;;;5084966;28;20443;-57
2021/12/19 03:28:43;;;;;;;5.60;4.60;;;4.90;74.20;;;;;;5074637;28;20060;-57
2021/12/19 03:31:10;;;;;;;5.63;4.53;;;4.90;74.20;;;;;;5088711;28;20391;-56
2021/12/19 03:33:37;;;;;;;6.75;4.40;;;5.00;74.10;;;;;;5093572;28;20388;-58
2021/12/19 03:36:05;;;;;;;6.07;4.78;;;5.00;74.10;;;;;;5092384;28;20142;-56
2021/12/19 03:38:38;;;;;;;5.45;4.38;;;5.10;74.00;;;;;;5094184;28;20063;-55
2021/12/19 03:43:36;;;;;;;5.70;4.53;;;5.10;73.90;;;;;;5084964;28;20514;-55
2021/12/19 03:46:02;;;;;;;6.43;5.10;;;5.10;74.00;;;;;;5074109;28;20131;-56
2021/12/19 03:48:28;;;;;;;6.80;5.50;;;5.10;74.00;;;;;;5092703;28;20056;-56
2021/12/19 03:50:54;;;;;;;6.85;5.32;;;5.20;73.90;;;;;;5093641;28;20459;-55
2021/12/19 03:53:23;;;;;;;7.32;5.47;;;5.10;73.90;;;;;;5090658;28;20078;-55
2021/12/19 03:55:50;;;;;;;6.15;5.15;;;5.20;74.10;;;;;;5093353;28;20081;-54
2021/12/19 03:58:18;;;;;;;6.43;5.68;;;5.20;74.00;;;;;;5083233;28;20469;-56
2021/12/19 04:00:45;;;;;;;7.03;5.95;;;5.20;74.00;;;;;;5075184;28;20028;-55
2021/12/19 04:03:17;;;;;;;7.28;5.53;;;5.20;74.00;;;;;;5081958;28;20029;-57
2021/12/19 04:05:45;;;;;;;6.43;5.40;;;5.30;74.00;;;;;;5087068;28;20259;-57
2021/12/19 04:08:11;;;;;;;7.00;5.47;;;5.30;74.10;;;;;;5087412;28;20020;-56
2021/12/19 04:10:37;;;;;;;7.30;5.43;;;5.20;74.00;;;;;;5090435;28;20028;-57
2021/12/19 04:13:03;;;;;;;8.15;5.90;;;5.30;74.00;;;;;;5093134;28;20349;-53
2021/12/19 04:15:28;;;;;;;7.10;5.68;;;5.30;74.00;;;;;;5074552;28;20044;-53
2021/12/19 04:17:54;;;;;;;7.30;5.85;;;5.30;74.20;;;;;;5075032;28;20361;-56
2021/12/19 04:20:20;;;;;;;8.48;5.40;;;5.30;74.20;;;;;;5088398;28;20488;-57
2021/12/19 04:22:48;;;;;;;6.97;5.68;;;5.30;74.20;;;;;;5086569;28;20059;-54
2021/12/19 04:25:14;;;;;;;5.95;5.18;;;5.30;74.30;;;;;;5077562;28;20495;-54
2021/12/19 04:27:41;;;;;;;7.00;5.30;;;5.20;74.40;;;;;;5077815;28;20031;-56
2021/12/19 04:30:09;;;;;;;7.60;6.22;;;5.20;74.50;;;;;;5083174;28;20029;-54
2021/12/19 04:32:41;;;;;;;7.72;6.28;;;5.20;74.60;;;;;;5079110;28;20032;-57
2021/12/19 04:35:09;;;;;;;8.88;6.88;;;5.20;74.70;;;;;;5088980;28;20035;-57
2021/12/19 04:40:22;;;;;;;7.57;5.53;;;5.20;74.70;;;;;;5091052;28;20128;-56
2021/12/19 04:59:08;;;;;;;;;;;5.10;75.00;;;;;;5080736;28;20545;-56
2021/12/19 05:14:33;;;;;;;8.10;6.28;;;5.00;75.50;;;;;;5094166;28;20035;-54
2021/12/19 05:17:05;;;;;;;9.48;7.40;;;5.00;75.60;;;;;;5086135;28;20031;-56
2021/12/19 05:19:44;;;;;;;10.35;7.57;;;5.00;75.60;;;;;;5084300;28;20456;-57
2021/12/19 05:22:10;;;;;;;8.57;6.93;;;5.00;75.70;;;;;;5082398;28;20056;-54
2021/12/19 05:27:02;;;;;;;8.82;7.50;;;5.00;75.90;;;;;;5080898;28;20074;-56
2021/12/19 05:29:28;;;;;;;7.95;6.97;;;5.00;76.00;;;;;;5087755;28;20099;-57
2021/12/19 05:31:54;;;;;;;8.27;7.40;;;5.00;75.90;;;;;;5076611;28;20107;-56
2021/12/19 05:34:20;;;;;;;10.52;8.10;;;5.00;76.00;;;;;;5096130;28;20567;-54
2021/12/19 05:45:14;;;;;;;7.85;6.70;;;5.10;75.90;;;;;;5091619;28;20165;-57
2021/12/19 05:47:41;;;;;;;8.05;7.13;;;5.10;75.90;;;;;;5076096;28;20035;-57
2021/12/19 05:50:07;;;;;;;9.30;7.65;;;5.10;75.90;;;;;;5075664;28;20021;-55
2021/12/19 05:52:33;;;;;;;11.02;8.13;;;5.10;75.90;;;;;;5079366;28;20363;-56
2021/12/19 05:54:59;;;;;;;9.07;7.85;;;5.00;75.90;;;;;;5091237;28;20087;-56
2021/12/19 05:57:24;;;;;;;9.57;7.65;;;5.10;76.10;;;;;;5087950;28;20430;-56
2021/12/19 05:59:50;;;;;;;9.93;8.00;;;5.10;76.00;;;;;;5086471;28;20028;-57
2021/12/19 06:02:17;;;;;;;7.90;6.72;;;5.10;76.00;;;;;;5095023;28;20028;-55
2021/12/19 06:04:43;;;;;;;8.32;7.13;;;5.10;76.10;;;;;;5081701;28;20469;-56
2021/12/19 06:07:09;;;;;;;8.75;6.78;;;5.20;76.10;;;;;;5089465;28;20024;-55
2021/12/19 06:09:34;;;;;;;8.05;6.82;;;5.20;76.20;;;;;;5096051;28;20047;-53
2021/12/19 06:12:00;;;;;;;8.98;7.70;;;5.20;76.30;;;;;;5096085;28;20020;-56
2021/12/19 06:14:31;;;;;;;10.48;8.43;;;5.20;76.40;;;;;;5095553;28;20075;-57
2021/12/19 06:16:57;;;;;;;7.47;6.28;;;5.20;76.40;;;;;;5095373;28;20062;-57
2021/12/19 06:19:23;;;;;;;8.63;6.78;;;5.20;76.60;;;;;;5083881;28;20051;-56
2021/12/19 06:21:49;;;;;;;10.27;7.88;;;5.20;76.30;;;;;;5074844;28;20028;-57
2021/12/19 06:24:14;;;;;;;8.57;7.30;;;5.20;76.20;;;;;;5075406;28;20353;-56
2021/12/19 06:26:40;;;;;;;8.25;7.10;;;5.20;76.40;;;;;;5078828;28;20029;-53
2021/12/19 06:29:06;;;;;;;9.25;7.25;;;5.30;76.40;;;;;;5083990;28;20384;-57
2021/12/19 06:31:31;;;;;;;9.10;6.95;;;5.30;76.30;;;;;;5094407;28;20027;-57
2021/12/19 06:33:57;;;;;;;9.45;7.95;;;5.30;76.40;;;;;;5087947;28;20021;-55
2021/12/19 06:36:23;;;;;;;8.52;7.00;;;5.30;76.30;;;;;;5075094;28;20032;-56
2021/12/19 06:38:49;;;;;;;8.77;6.88;;;5.30;76.30;;;;;;5074726;28;20473;-57
2021/12/19 06:41:14;;;;;;;9.77;8.30;;;5.30;76.40;;;;;;5074362;28;20060;-54
2021/12/19 06:43:40;;;;;;;11.10;9.02;;;5.30;76.60;;;;;;5077221;28;20493;-56
2021/12/19 06:46:06;;;;;;;8.98;7.10;;;5.30;76.60;;;;;;5080715;28;20067;-57
2021/12/19 06:48:31;;;;;;;10.75;8.77;;;5.30;76.60;;;;;;5074706;28;20016;-54
2021/12/19 06:50:57;;;;;;;10.90;7.88;;;5.30;76.60;;;;;;5075370;28;20025;-57
2021/12/19 06:53:23;;;;;;;8.13;6.65;;;5.40;76.70;;;;;;5083537;28;20056;-57
2021/12/19 06:55:49;;;;;;;8.40;6.50;;;5.50;76.60;;;;;;5074792;28;20020;-57
2021/12/19 06:58:15;;;;;;;9.65;7.65;;;5.50;76.50;;;;;;5074631;28;20122;-57
2021/12/19 07:00:41;;;;;;;10.07;7.10;;;5.50;76.50;;;;;;5074380;28;20024;-55
2021/12/19 07:03:06;;;;;;;10.55;8.35;;;5.60;76.40;;;;;;5084914;28;20528;-54
2021/12/19 07:05:32;;;;;;;8.55;7.03;;;5.60;76.40;;;;;;5086774;28;20107;-57
2021/12/19 07:07:58;;;;;;;9.93;8.00;;;5.60;76.40;;;;;;5088872;28;20031;-56
2021/12/19 07:10:23;;;;;;;8.85;6.55;;;5.60;76.40;;;;;;5094314;28;20020;-55
2021/12/19 07:12:49;;;;;;;9.18;7.55;;;5.60;76.40;;;;;;5094515;28;20103;-58
2021/12/19 07:15:17;;;;;;;10.85;7.50;;;5.60;76.30;;;;;;5094432;28;20028;-56
2021/12/19 07:17:43;;;;;;;9.40;7.95;;;5.70;76.40;;;;;;5094722;28;20036;-57
2021/12/19 07:20:09;;;;;;;8.68;7.38;;;5.70;76.30;;;;;;5093380;28;20102;-56
2021/12/19 07:22:35;;;;;;;11.52;8.65;;;5.80;76.30;;;;;;5094394;28;20131;-57
2021/12/19 07:25:00;;;;;;;10.02;8.40;;;5.80;76.20;;;;;;5088028;28;20099;-57
2021/12/19 07:27:26;;;;;;;10.57;7.53;;;5.90;76.30;;;;;;5074890;28;20099;-57
2021/12/19 07:29:55;;;;;;;8.75;7.43;;;5.90;76.10;;;;;;5081127;28;20028;-57
2021/12/19 07:32:21;;;;;;;7.75;6.40;;;5.90;76.10;;;;;;5088624;28;20021;-57
2021/12/19 07:34:48;;;;;;;9.32;7.43;;;6.00;76.00;;;;;;5094961;28;20383;-55
2021/12/19 07:37:14;;;;;;;10.27;8.40;;;6.00;75.80;;;;;;5094742;28;20070;-57
2021/12/19 07:39:51;;;;;;;9.75;7.30;;;6.00;75.60;;;;;;5081728;28;20036;-56
2021/12/19 07:42:18;;;;;;;11.70;8.30;;;6.00;75.60;;;;;;5087382;28;20025;-56
2021/12/19 07:44:43;;;;;;;11.98;8.63;;;6.00;75.60;;;;;;5091681;28;20040;-55
2021/12/19 07:47:10;;;;;;;10.43;7.68;;;6.10;75.60;;;;;;5074489;28;20373;-56
2021/12/19 07:49:36;;;;;;;9.30;7.20;;;6.10;75.60;;;;;;5083291;28;20024;-55
2021/12/19 07:52:03;;;;;;;10.00;7.95;;;6.10;75.40;;;;;;5074201;28;20099;-56
2021/12/19 07:54:29;;;;;;;9.88;7.82;;;6.10;75.50;;;;;;5074333;28;20035;-56
2021/12/19 07:56:55;;;;;;;12.43;8.82;;;6.20;75.50;;;;;;5077851;28;20111;-56
2021/12/19 07:59:20;;;;;;;9.85;7.90;;;6.20;75.40;;;;;;5086936;28;20551;-53
2021/12/19 08:01:48;;;;;;;9.73;7.45;;;6.20;75.30;;;;;;5087063;28;20082;-54
2021/12/19 08:04:14;;;;;;;9.35;6.53;;;6.20;75.30;;;;;;5088661;28;20090;-57
2021/12/19 08:06:40;;;;;;;8.90;6.88;;;6.20;75.10;;;;;;5083764;28;20469;-57
2021/12/19 08:09:10;;;;;;;9.32;7.65;;;6.20;75.30;;;;;;5077999;28;20076;-56
2021/12/19 08:11:41;;;;;;;9.35;7.22;;;6.20;75.40;;;;;;5078632;28;20515;-57
2021/12/19 08:14:12;;;;;;;7.78;6.60;;;6.20;75.40;;;;;;5089906;28;20024;-56
2021/12/19 08:16:38;;;;;;;;;;;6.20;75.40;;;;;;5084417;28;20085;-57
2021/12/19 08:19:05;;;;;;;6.95;6.18;;;6.20;75.40;;;;;;5080527;28;19943;-58
2021/12/19 08:21:31;;;;;;;8.38;6.90;;;6.20;76.10;;;;;;5081927;28;20025;-55
2021/12/19 08:24:01;;;;;;;8.77;6.30;;;6.20;75.40;;;;;;5083358;28;20037;-57
2021/12/19 08:26:30;;;;;;;10.45;7.45;;;6.30;75.50;;;;;;5081207;28;20379;-57
2021/12/19 08:28:57;;;;;;;8.35;5.97;;;6.30;75.50;;;;;;5079388;28;20537;-56
2021/12/19 08:31:22;;;;;;;7.53;5.88;;;6.30;75.50;;;;;;5077842;28;20024;-57
2021/12/19 08:33:48;;;;;;;8.07;6.18;;;6.30;75.50;;;;;;5080131;28;20414;-56
2021/12/19 08:36:15;;;;;;;7.63;6.15;;;6.30;75.50;;;;;;5080690;28;20111;-57
2021/12/19 08:38:41;;;;;;;9.15;7.68;;;6.30;75.70;;;;;;5092053;28;20032;-54
2021/12/19 08:41:07;;;;;;;10.23;7.65;;;6.30;75.80;;;;;;5081229;28;20020;-56
2021/12/19 08:43:32;;;;;;;9.43;7.32;;;6.30;75.90;;;;;;5076650;28;20030;-57
2021/12/19 08:45:58;;;;;;;8.25;7.10;;;6.30;76.00;;;;;;5083594;28;20489;-56
2021/12/19 08:48:24;;;;;;;9.88;7.60;;;6.40;76.00;;;;;;5086862;28;20422;-57
2021/12/19 08:50:56;;;;;;;8.98;6.78;;;6.40;76.10;;;;;;5082145;28;20384;-58
2021/12/19 08:53:27;;;;;;;8.13;6.00;;;6.40;76.60;;;;;;5078031;28;20461;-58
2021/12/19 08:55:53;;;;;;;8.88;6.78;;;6.50;75.80;;;;;;5082917;28;20040;-56
2021/12/19 08:58:19;;;;;;;8.02;6.38;;;6.40;75.60;;;;;;5079388;28;20042;-57
2021/12/19 09:00:47;;;;;;;8.63;6.38;;;6.40;75.60;;;;;;5084548;28;20494;-58
2021/12/19 09:03:14;;;;;;;7.75;5.80;;;6.50;75.60;;;;;;5078172;28;20040;-57
2021/12/19 09:05:49;;;;;;;7.07;5.68;;;6.40;75.60;;;;;;5075807;28;20024;-58
2021/12/19 09:08:15;;;;;;;9.90;6.90;;;6.40;75.70;;;;;;5081767;28;20456;-57
2021/12/19 09:10:41;;;;;;;7.57;5.95;;;6.30;75.90;;;;;;5086021;28;20021;-58
2021/12/19 09:13:07;;;;;;;7.25;6.00;;;6.20;76.00;;;;;;5076631;28;20025;-53
2021/12/19 09:15:32;;;;;;;9.52;7.15;;;6.20;76.40;;;;;;5085542;28;20039;-58
2021/12/19 09:18:06;;;;;;;9.30;6.93;;;6.10;76.50;;;;;;5087604;28;20028;-59
2021/12/19 09:20:32;;;;;;;8.65;6.47;;;6.10;76.80;;;;;;5092375;28;20028;-57
2021/12/19 09:22:58;;;;;;;9.82;7.68;;;6.10;77.00;;;;;;5080761;28;20106;-53
2021/12/19 09:25:24;;;;;;;9.02;6.82;;;6.10;77.10;;;;;;5076921;28;20467;-56
2021/12/19 09:27:55;;;;;;;8.63;6.88;;;6.10;77.10;;;;;;5082689;28;20034;-57
2021/12/19 09:30:25;;;;;;;8.30;6.80;;;6.10;77.20;;;;;;5078065;28;20427;-58
2021/12/19 09:32:51;;;;;;;10.05;7.82;;;6.10;77.40;;;;;;5088498;28;20032;-56
2021/12/19 09:35:17;;;;;;;8.88;6.00;;;6.20;77.50;;;;;;5081326;28;20434;-56
2021/12/19 09:37:42;;;;;;;7.85;6.13;;;6.20;77.40;;;;;;5096695;28;20023;-56
2021/12/19 09:40:11;;;;;;;8.25;6.60;;;6.20;77.30;;;;;;5091352;28;20384;-56
2021/12/19 09:42:45;;;;;;;8.27;5.47;;;6.30;77.30;;;;;;5083343;28;20412;-56
2021/12/19 09:45:11;;;;;;;10.50;7.32;;;6.30;77.40;;;;;;5084943;28;20063;-55
2021/12/19 09:47:37;;;;;;;7.57;5.50;;;6.40;77.30;;;;;;5092875;28;20055;-55
2021/12/19 09:50:05;;;;;;;7.38;5.43;;;6.40;77.20;;;;;;5079866;28;20152;-56
2021/12/19 09:52:31;;;;;;;9.93;6.82;;;6.50;77.20;;;;;;5080067;28;20486;-58
2021/12/19 09:54:57;;;;;;;7.70;6.43;;;6.40;77.10;;;;;;5075899;28;20028;-58
2021/12/19 09:57:24;;;;;;;7.80;6.88;;;6.50;77.20;;;;;;5086597;28;20039;-58
2021/12/19 09:59:50;;;;;;;8.80;6.15;;;6.50;77.40;;;;;;5085737;28;20086;-59
2021/12/19 10:02:16;;;;;;;8.48;6.20;;;6.50;77.50;;;;;;5094151;28;20039;-55
2021/12/19 10:04:44;;;;;;;8.90;7.00;;;6.50;77.60;;;;;;5082451;28;20040;-55
2021/12/19 10:07:12;;;;;;;8.48;6.20;;;6.50;77.60;;;;;;5090137;28;20052;-57
2021/12/19 10:09:50;;;;;;;7.30;5.20;;;6.60;77.70;;;;;;5075244;28;20376;-56
2021/12/19 10:15:34;;;;;;;9.43;6.40;;;6.60;77.70;;;;;;5081767;28;20053;-57
2021/12/19 10:18:02;;;;;;;8.50;6.75;;;6.60;77.70;;;;;;5089526;28;20039;-56
2021/12/19 10:20:44;;;;;;;6.80;5.40;;;6.60;77.90;;;;;;5076036;28;20046;-56
2021/12/19 10:23:29;;;;;;;;;;;6.60;77.70;;;;;;5076107;28;20060;-54
2021/12/19 10:25:56;;;;;;;9.07;6.10;;;6.50;77.80;;;;;;5075790;28;19927;-54
2021/12/19 10:28:21;;;;;;;7.47;5.93;;;6.60;77.90;;;;;;5075621;28;20025;-55
2021/12/19 10:30:49;;;;;;;8.32;6.32;;;6.60;77.80;;;;;;5075213;28;20024;-57
2021/12/19 10:33:28;;;;;;;7.60;5.55;;;6.60;78.00;;;;;;5085291;28;20023;-57
2021/12/19 10:35:56;;;;;;;7.72;5.43;;;6.60;77.90;;;;;;5089616;28;20389;-56
2021/12/19 10:38:31;;;;;;;6.22;5.40;;;6.60;78.00;;;;;;5095642;28;20384;-57
2021/12/19 10:41:06;;;;;;;7.22;5.78;;;6.60;78.20;;;;;;5092228;28;20028;-57
2021/12/19 10:43:32;;;;;;;6.05;4.50;;;6.60;78.20;;;;;;5075774;28;20465;-55
2021/12/19 10:46:06;;;;;;;6.80;5.20;;;6.50;78.20;;;;;;5074481;28;20020;-53
2021/12/19 10:48:39;;;;;;;5.95;4.90;;;6.50;78.30;;;;;;5075737;28;20469;-57
2021/12/19 10:51:15;;;;;;;5.72;5.05;;;6.50;78.40;;;;;;5084015;28;20024;-56
2021/12/19 10:53:45;;;;;;;6.15;4.95;;;6.50;78.40;;;;;;5093822;28;20047;-57
2021/12/19 10:56:17;;;;;;;6.82;5.22;;;6.60;78.40;;;;;;5081339;28;20491;-56
2021/12/19 10:58:47;;;;;;;7.72;5.70;;;6.60;78.40;;;;;;5079559;28;20036;-57
2021/12/19 11:01:19;;;;;;;7.05;5.50;;;6.60;78.40;;;;;;5093401;28;20069;-57
2021/12/19 11:03:47;;;;;;;6.05;4.55;;;6.60;78.60;;;;;;5082868;28;20016;-57
2021/12/19 11:06:20;;;;;;;6.70;5.28;;;6.60;78.40;;;;;;5080061;28;20021;-59
2021/12/19 11:08:46;;;;;;;6.50;5.20;;;6.60;78.30;;;;;;5074867;28;20025;-56
2021/12/19 11:11:13;;;;;;;7.85;5.40;;;6.50;78.20;;;;;;5091755;28;20031;-56
2021/12/19 11:13:39;;;;;;;5.20;4.40;;;6.60;78.30;;;;;;5095553;28;20035;-56
2021/12/19 11:16:05;;;;;;;6.25;4.63;;;6.50;78.20;;;;;;5081859;28;20073;-56
2021/12/19 11:18:30;;;;;;;6.40;5.05;;;6.50;78.80;;;;;;5095252;28;20036;-55
2021/12/19 11:20:57;;;;;;;7.30;5.32;;;6.50;78.20;;;;;;5094278;28;20085;-54
2021/12/19 11:23:23;;;;;;;6.25;5.32;;;6.50;78.20;;;;;;5082026;28;20040;-56
2021/12/19 11:25:49;;;;;;;6.78;4.78;;;6.50;78.20;;;;;;5075122;28;20036;-55
2021/12/19 11:28:15;;;;;;;6.13;5.20;;;6.50;78.10;;;;;;5083559;28;20512;-56
2021/12/19 11:30:41;;;;;;;6.57;4.93;;;6.50;78.00;;;;;;5074350;28;20028;-56
2021/12/19 11:33:25;;;;;;;7.30;5.00;;;6.50;77.90;;;;;;5084488;28;20416;-55
2021/12/19 11:35:55;;;;;;;6.70;5.10;;;6.40;77.80;;;;;;5091514;28;20570;-56
2021/12/19 11:38:22;;;;;;;5.93;4.47;;;6.40;77.70;;;;;;5086154;28;20108;-56
2021/12/19 11:40:50;;;;;;;7.32;5.25;;;6.40;77.50;;;;;;5079562;28;20109;-54
2021/12/19 11:43:16;;;;;;;7.30;5.03;;;6.40;77.50;;;;;;5075167;28;20032;-56
2021/12/19 11:45:48;;;;;;;5.78;4.80;;;6.30;77.40;;;;;;5075257;28;20100;-56
2021/12/19 11:48:28;;;;;;;6.97;5.10;;;6.20;77.40;;;;;;5088829;28;20433;-56
2021/12/19 11:50:56;;;;;;;5.82;4.70;;;6.10;77.50;;;;;;5088598;28;20149;-56
2021/12/19 11:53:22;;;;;;;6.60;4.22;;;6.10;77.80;;;;;;5077727;28;20024;-56
2021/12/19 11:55:53;;;;;;;5.15;4.18;;;6.00;78.00;;;;;;5094142;28;20488;-54
2021/12/19 11:58:28;;;;;;;5.05;4.28;;;5.90;78.00;;;;;;5085009;28;20024;-56
2021/12/19 12:00:54;;;;;;;6.18;4.43;;;5.80;78.20;;;;;;5090766;28;20029;-56
2021/12/19 12:03:23;;;;;;;6.35;4.88;;;5.80;78.40;;;;;;5081466;28;20107;-55
2021/12/19 12:06:16;;;;;;;7.13;5.10;;;5.70;78.60;;;;;;5077978;28;20036;-55
2021/12/19 12:09:04;;;;;;;6.80;5.32;;;5.70;78.80;;;;;;5042911;28;20035;-57
2021/12/19 12:11:30;;;;;;;4.93;4.22;;;5.70;78.90;;;;;;5081795;28;20380;-55
2021/12/19 12:14:20;;;;;;;5.55;4.78;;;5.60;79.00;;;;;;5081233;28;20021;-56
2021/12/19 12:17:03;;;;;;;7.85;5.32;;;5.60;79.00;;;;;;5074803;28;20533;-56
2021/12/19 12:19:58;;;;;;;6.93;5.10;;;5.50;79.20;;;;;;5074236;28;20051;-56
2021/12/19 12:25:11;;;;;;;6.95;5.47;;;5.50;79.60;;;;;;5077218;28;20034;-54
2021/12/19 12:27:41;;;;;;;5.85;4.60;;;5.50;79.70;;;;;;5081650;28;20028;-54
2021/12/19 12:30:22;;;;;;;7.35;5.18;;;5.50;79.80;;;;;;5083916;28;20089;-54
2021/12/19 12:32:47;;;;;;;7.30;4.68;;;5.50;79.70;;;;;;5094071;28;20096;-56
2021/12/19 12:35:14;;;;;;;6.75;4.95;;;5.50;79.70;;;;;;5087852;28;20177;-55
2021/12/19 12:37:42;;;;;;;9.77;5.63;;;5.50;79.60;;;;;;5089532;28;20060;-56
2021/12/19 12:40:31;;;;;;;6.32;4.70;;;5.50;79.80;;;;;;5078655;28;20047;-56
2021/12/19 12:43:13;;;;;;;6.50;5.35;;;5.50;79.80;;;;;;5081025;28;20169;-54
2021/12/19 12:45:56;;;;;;;6.82;5.13;;;5.50;80.00;;;;;;5087728;28;20032;-54
2021/12/19 12:49:01;;;;;;;6.88;5.40;;;5.50;80.00;;;;;;5086204;28;20036;-56
2021/12/19 12:51:29;;;;;;;6.07;4.72;;;5.60;80.20;;;;;;5025339;28;20047;-55
2021/12/19 12:53:58;;;;;;;6.07;5.20;;;5.60;80.40;;;;;;5070334;28;20032;-56
2021/12/19 12:56:32;;;;;;;7.55;5.40;;;5.60;80.50;;;;;;5078435;28;20024;-56
2021/12/19 12:58:59;;;;;;;6.10;5.00;;;5.70;80.70;;;;;;5080768;28;20467;-56
2021/12/19 13:01:31;;;;;;;8.38;5.40;;;5.70;80.70;;;;;;5081187;28;20020;-56
2021/12/19 13:03:59;;;;;;;8.07;5.85;;;5.80;80.90;;;;;;5097027;28;20078;-56
2021/12/19 13:06:40;;;;;;;6.68;4.93;;;5.80;80.90;;;;;;5091570;28;20042;-56
2021/12/19 13:09:14;;;;;;;5.75;4.80;;;5.80;80.90;;;;;;5093160;28;20024;-56
2021/12/19 13:11:41;;;;;;;7.43;5.82;;;5.90;80.90;;;;;;5077420;28;20079;-56
2021/12/19 13:14:15;;;;;;;7.38;5.65;;;5.90;80.90;;;;;;5089845;28;20020;-56
2021/12/19 13:16:56;;;;;;;7.22;5.43;;;6.00;81.00;;;;;;5076296;28;20405;-55
2021/12/19 13:19:54;;;;;;;7.55;4.95;;;6.00;80.90;;;;;;5095725;28;20073;-52
2021/12/19 13:22:47;;;;;;;7.10;5.13;;;6.00;80.80;;;;;;5093905;28;20051;-56
2021/12/19 13:25:15;;;;;;;7.30;5.40;;;6.00;81.10;;;;;;5088341;28;20047;-56
2021/12/19 13:27:46;;;;;;;8.00;5.93;;;6.00;81.30;;;;;;5083574;28;20385;-56
2021/12/19 13:30:23;;;;;;;8.32;6.32;;;6.00;81.40;;;;;;5089084;28;20407;-55
2021/12/19 13:32:58;;;;;;;8.13;6.22;;;6.00;81.60;;;;;;5076238;28;20064;-56
2021/12/19 13:35:25;;;;;;;9.02;6.40;;;6.00;81.70;;;;;;5076835;28;20039;-56
2021/12/19 13:38:03;;;;;;;8.52;6.50;;;6.00;81.80;;;;;;5076483;28;20032;-56
2021/12/19 13:40:32;;;;;;;7.35;6.10;;;6.00;82.10;;;;;;5076393;28;20020;-56
2021/12/19 13:43:05;;;;;;;8.60;6.53;;;6.00;82.00;;;;;;5081330;28;20035;-56
2021/12/19 13:45:37;;;;;;;9.38;7.03;;;6.00;82.30;;;;;;5088753;28;20024;-56
2021/12/19 13:48:06;;;;;;;9.52;6.70;;;6.00;82.40;;;;;;5090601;28;20028;-56
2021/12/19 13:50:37;;;;;;;9.60;6.95;;;6.10;82.30;;;;;;5086369;28;20028;-56
2021/12/19 13:53:04;;;;;;;8.18;6.45;;;6.10;82.30;;;;;;5087129;28;20057;-56
2021/12/19 13:55:51;;;;;;;9.48;6.72;;;6.20;82.10;;;;;;5091345;28;20443;-56
2021/12/19 13:58:19;;;;;;;8.05;5.28;;;6.20;82.10;;;;;;5082496;28;20029;-52
2021/12/19 14:00:48;;;;;;;8.15;6.32;;;6.30;82.00;;;;;;5081494;28;20029;-54
2021/12/19 14:03:14;;;;;;;10.32;6.35;;;6.30;82.00;;;;;;5096714;28;20130;-55
2021/12/19 14:05:43;;;;;;;9.57;6.38;;;6.30;81.90;;;;;;5089073;28;20103;-55
2021/12/19 14:08:30;;;;;;;7.97;5.95;;;6.30;82.00;;;;;;5090127;28;20036;-53
2021/12/19 14:11:18;;;;;;;10.32;6.95;;;6.40;82.10;;;;;;5081685;28;20029;-56
2021/12/19 14:14:08;;;;;;;8.48;6.28;;;6.40;82.10;;;;;;5082149;28;20044;-56
2021/12/19 14:16:45;;;;;;;7.47;5.18;;;6.40;82.00;;;;;;5091136;28;20031;-56
2021/12/19 14:19:29;;;;;;;7.43;5.80;;;6.50;82.00;;;;;;5091394;28;20037;-56
2021/12/19 14:22:06;;;;;;;10.20;6.90;;;6.50;82.00;;;;;;5083773;28;20063;-55